メインページ
METAR-TAF:

METAR-TAF

空港 :

アカプルコ国際空港

アカプルコ, メキシコ

緯度: 16-46N, 経度: 099-45W, 海抜: 5m

現時点の気象観測

当レポートは1時間9分前の22:51(UTC)に作成
南西の風 5kt
気温 32°C
湿度 63%
気圧 1010 hPa
視程: 9.7km
高度30000ftの雲は散在している

METAR: MMAA 162251Z 23005KT 6SM SCT300 32/24 A2983 RMK 8/002 HZY DSNT CB NE

時間: 19:00 (00:00 UTC)

予報

当レポートは26分前の23:34(UTC)に作成
予報は17日の 00時(UTC)から 18日の 06時(UTC)まで有効
西/南西の風 5kt
視程: 10km
高度2000ftの雲は散在している
高度30000ftの雲は散在している
17日の 0300時(UTC)から
北/北東の風 5kt
視程: 10km
高度1500ftの雲は散在している, 積乱雲.
高度30000ftの雲は散在している
近辺で, 雨
17日の 03時(UTC)から 17日の 06時(UTC)まで一時的に
視程: 8.0km
高度1500ftの千切れ雲あり, 積乱雲.
17日の 1000時(UTC)から
北/北西の風 5kt
視程: 9.7km
高度1500ftの雲は散在している, 積乱雲.
高度8000ftの千切れ雲あり
煙霧
確率 40%
17日の 11時(UTC)から 17日の 15時(UTC)まで
視程: 9.7km
高度1500ftの千切れ雲あり, 積乱雲.
17日の 1800時(UTC)から
西/南西の風 10kt
視程: 10km
高度2000ftの雲は散在している
高度30000ftの雲は散在している
18日の 0300時(UTC)から
北/北西の風 5kt
視程: 10km
高度30000ftの雲は散在している

TAF: MMAA 162334Z 1700/1806 24005KT P6SM SCT020 SCT300 TX33/1720Z TN26/1713Z FM170300 02005KT P6SM VC RA SCT015CB SCT300 TEMPO 1703/1706 5SM RA BKN015CB FM171000 34005KT 6SM HZ SCT015CB BKN080 PROB40 1711/1715 6SM RA BKN015CB FM171800 24010KT P6SM SCT020 SCT300 FM180300 33005KT P6SM SCT300

4,000以上の空港の気象観測と天気予報(METAR報とTAF報)

利用可能な観測所は地図上に黄色い丸と赤い丸で示す。

丸の上にカーソルを重ねると観測所名を参照できる。

次にクリックすると気象観測と天気予報を参照できる。

マップの切り替え:黒色「×」印の緑ボタンをクリックして拡大、「-」印の緑ボタンをクリックして縮小、緑色の三角印をクリックして隣りの地図に切り替え


METAR-TAF: